Latest Weather Observations for Weipa

IDQ60801

Issued at 3:05 pm EST Thursday 28 August 2014 (issued every 30 minutes, with the page automatically refreshed every 10 minutes)

About weather observations | Map of weather stations | Latest weather observations for QLD | Other Formats
Station Details ID: 027045 Name: WEIPA AERO Lat: -12.68 Lon: 141.92 Height: 17.96 m
Data from the previous 72 hours. | See also: Recent months at Weipa
Date/Time
EST
Temp
°C
App
Temp
°C
Dew
Point
Rel
Hum
%
Delta-T
°C
Wind Press
QNH
hPa
Press
MSL
hPa
Rain
since 9 am
mm
Dir
 
Spd
km/h
Gust
km/h
Spd
kts
Gust
kts
28/03:00pm 32.4 28.3 6.3 19 14.1 ENE 17 28 9 15 1011.1 - 0.0
28/02:30pm 32.0 28.8 6.9 21 13.6 E 13 28 7 15 1011.4 - 0.0
28/02:00pm 32.1 27.5 6.5 20 13.8 E 20 32 11 17 1011.8 - 0.0
28/01:34pm 32.3 26.3 7.1 21 13.8 ESE 28 39 15 21 1012.0 - 0.0
28/01:30pm 31.4 28.6 8.4 24 12.8 SE 13 20 7 11 1012.0 - 0.0
28/01:00pm 30.7 27.6 10.3 28 11.6 ESE 17 32 9 17 1012.5 - 0.0
28/12:30pm 30.3 26.7 9.8 28 11.6 E 19 30 10 16 1013.0 - 0.0
28/12:00pm 29.8 28.0 12.0 33 10.4 E 13 20 7 11 1013.5 1013.4 0.0
28/11:30am 28.6 24.3 10.9 33 10.1 E 24 30 13 16 1014.0 - 0.0
28/11:00am 28.1 25.1 12.1 37 9.3 ESE 19 33 10 18 1014.4 - 0.0
28/10:30am 26.5 24.6 14.1 46 7.4 SE 17 32 9 17 1014.8 - 0.0
28/10:00am 25.4 23.0 14.4 50 6.5 SE 20 32 11 17 1015.0 - 0.0
28/09:30am 24.3 22.6 16.3 61 4.9 SE 20 32 11 17 1015.1 - 0.0
28/09:00am 22.9 22.9 17.1 70 3.6 SE 13 20 7 11 1015.2 1015.1 0.0
28/08:30am 21.2 21.5 17.1 77 2.5 SE 11 19 6 10 1015.2 - 0.0
28/08:00am 19.3 19.5 16.8 85 1.5 SSE 11 17 6 9 1015.1 - 0.0
28/07:30am 18.1 19.3 16.9 93 0.7 SSE 6 9 3 5 1015.0 - 0.0
28/07:00am 17.0 18.0 16.3 96 0.4 SSE 6 9 3 5 1014.6 - 0.0
28/06:30am 16.4 17.9 15.7 96 0.4 SSE 2 4 1 2 1014.3 - 0.0
28/06:00am 16.8 18.0 16.0 95 0.5 SSE 4 6 2 3 1013.9 1013.8 0.0
28/05:30am 16.8 18.0 15.8 94 0.6 SSE 4 6 2 3 1013.7 - 0.0
28/05:00am 17.1 18.0 16.0 93 0.6 SSE 6 7 3 4 1013.5 - 0.0
28/04:30am 17.2 17.9 16.1 93 0.7 S 7 9 4 5 1013.5 - 0.0
28/04:00am 17.3 17.6 16.0 92 0.8 S 9 11 5 6 1013.3 - 0.0
28/03:30am 17.0 17.7 15.5 91 0.9 S 6 7 3 4 1013.3 - 0.0
28/03:00am 17.9 19.4 15.6 86 1.4 SSE 2 4 1 2 1013.4 1013.3 0.0
28/02:30am 18.7 19.6 16.1 85 1.5 SE 6 7 3 4 1013.7 - 0.0
28/02:00am 18.4 19.1 15.5 83 1.7 SE 6 7 3 4 1013.8 - 0.0
28/01:30am 19.1 20.3 16.0 82 1.8 E 4 6 2 3 1014.0 - 0.0
28/01:00am 19.2 20.3 15.7 80 2.1 SE 4 7 2 4 1014.4 - 0.0
28/12:30am 20.0 21.2 15.8 77 2.5 ESE 4 6 2 3 1014.7 - 0.0
28/12:00am 20.4 21.9 15.8 75 2.7 ESE 2 4 1 2 1014.8 1014.7 0.0
 
Date/Time
EST
Temp
°C
App
Temp
°C
Dew
Point
Rel
Hum
%
Delta-T
°C
Wind Press
QNH
hPa
Press
MSL
hPa
Rain
since 9 am
mm
Dir
 
Spd
km/h
Gust
km/h
Spd
kts
Gust
kts
27/11:30pm 21.2 21.9 15.6 70 3.3 ESE 6 7 3 4 1015.0 - 0.0
27/11:00pm 21.8 21.9 15.5 67 3.8 ESE 9 13 5 7 1015.0 - 0.0
27/10:30pm 22.5 21.7 15.2 63 4.3 E 13 20 7 11 1014.8 - 0.0
27/10:00pm 23.0 22.0 14.6 59 5.0 E 13 19 7 10 1014.6 - 0.0
27/09:30pm 23.6 23.2 14.2 55 5.5 E 9 17 5 9 1014.3 - 0.0
27/09:00pm 24.4 23.1 13.8 51 6.2 E 13 24 7 13 1013.9 1013.8 0.0
27/08:30pm 25.1 23.5 13.8 49 6.7 E 15 22 8 12 1013.4 - 0.0
27/08:00pm 26.0 24.2 13.4 45 7.4 E 15 22 8 12 1012.9 - 0.0
27/07:30pm 26.3 25.8 13.9 46 7.3 E 9 20 5 11 1012.3 - 0.0
27/07:00pm 25.6 27.9 18.5 65 4.5 N 4 6 2 3 1011.7 - 0.0
27/06:30pm 26.2 27.9 18.4 62 5.0 W 7 13 4 7 1011.1 - 0.0
27/06:00pm 28.3 29.6 17.5 52 6.8 WSW 7 13 4 7 1010.6 1010.5 0.0
27/05:30pm 31.7 29.0 7.4 22 13.3 SE 11 19 6 10 1010.3 - 0.0
27/05:00pm 32.3 28.9 7.5 21 13.6 SE 15 22 8 12 1010.2 - 0.0
27/04:30pm 32.5 28.1 7.5 21 13.7 E 20 26 11 14 1010.0 - 0.0
27/04:00pm 32.6 29.5 7.3 20 13.9 SE 13 24 7 13 1009.9 - 0.0
27/03:30pm 33.0 28.6 6.4 19 14.4 SE 19 28 10 15 1009.9 - 0.0
27/03:00pm 32.5 30.2 7.5 21 13.8 ESE 9 24 5 13 1010.1 1010.0 0.0
27/02:30pm 32.7 29.6 7.4 20 13.9 ESE 13 24 7 13 1010.4 - 0.0
27/02:00pm 32.1 28.2 7.3 21 13.6 SE 17 30 9 16 1011.0 - 0.0
27/01:30pm 31.5 27.2 7.7 22 13.1 ESE 20 32 11 17 1011.3 - 0.0
27/01:00pm 32.4 27.8 8.3 22 13.4 E 22 30 12 16 1011.8 - 0.0
27/12:30pm 30.7 25.6 7.8 24 12.5 SE 24 33 13 18 1012.4 - 0.0
27/12:00pm 31.0 27.7 10.9 29 11.6 ESE 19 30 10 16 1013.0 1012.9 0.0
27/11:30am 29.1 26.6 12.4 35 9.8 ESE 17 32 9 17 1013.6 - 0.0
27/11:00am 28.7 25.9 12.7 37 9.4 E 19 28 10 15 1014.1 - 0.0
27/10:30am 27.6 25.0 13.7 42 8.3 SE 20 32 11 17 1014.6 - 0.0
27/10:00am 26.2 24.3 15.2 50 6.7 ESE 19 26 10 14 1014.8 - 0.0
27/09:30am 25.3 22.6 15.6 55 5.9 ESE 24 35 13 19 1014.8 - 0.0
27/09:00am 24.4 22.5 16.8 62 4.7 SE 22 32 12 17 1014.7 1014.6 0.0
27/08:30am 22.8 20.6 17.0 70 3.6 ESE 24 28 13 15 1014.6 - 0.0
27/08:00am 20.7 21.8 17.0 79 2.3 SE 7 13 4 7 1014.3 - 0.0
27/07:30am 18.9 20.5 16.8 87 1.3 SSE 4 7 2 4 1014.0 - 0.0
27/07:00am 17.3 18.8 15.6 90 1.0 SE 2 4 1 2 1013.8 - 0.0
27/06:30am 17.2 18.7 15.8 91 0.8 SE 2 2 1 1 1013.5 - 0.0
27/06:00am 17.6 19.2 15.9 90 1.0 SSE 2 6 1 3 1013.2 1013.1 0.0
27/05:30am 17.8 19.5 16.2 90 1.0 ESE 2 4 1 2 1013.1 - 0.0
27/05:00am 18.0 19.3 16.2 89 1.1 SSE 4 6 2 3 1013.0 - 0.0
27/04:30am 18.3 20.0 16.2 87 1.2 SSE 2 6 1 3 1013.1 - 0.0
27/04:00am 18.5 19.9 16.5 88 1.2 SE 4 4 2 2 1013.1 - 0.0
27/03:30am 18.7 20.5 16.4 86 1.4 SE 2 4 1 2 1013.1 - 0.0
27/03:00am 19.0 20.4 16.4 85 1.6 SE 4 4 2 2 1013.2 1013.1 0.0
27/02:30am 19.3 20.7 16.5 84 1.7 ESE 4 4 2 2 1013.3 - 0.0
27/02:00am 19.6 21.0 16.5 82 1.9 SE 4 4 2 2 1013.5 - 0.0
27/01:30am 20.1 21.5 16.4 79 2.2 SE 4 4 2 2 1013.7 - 0.0
27/01:00am 20.3 21.3 16.3 78 2.4 SSE 6 6 3 3 1013.9 - 0.0
27/12:30am 20.9 23.1 16.5 76 2.7 CALM 0 4 0 2 1014.0 - 0.0
27/12:00am 21.8 23.2 16.4 71 3.3 E 4 6 2 3 1014.1 1014.0 0.0
 
Date/Time
EST
Temp
°C
App
Temp
°C
Dew
Point
Rel
Hum
%
Delta-T
°C
Wind Press
QNH
hPa
Press
MSL
hPa
Rain
since 9 am
mm
Dir
 
Spd
km/h
Gust
km/h
Spd
kts
Gust
kts
26/11:30pm 22.4 23.2 16.3 68 3.7 E 7 11 4 6 1014.2 - 0.0
26/11:00pm 22.9 22.5 16.1 65 4.1 E 13 22 7 12 1014.2 - 0.0
26/10:30pm 23.4 22.5 15.8 62 4.6 E 15 22 8 12 1014.2 - 0.0
26/10:00pm 23.9 22.4 15.4 59 5.1 E 17 26 9 14 1014.0 - 0.0
26/09:30pm 24.3 23.0 14.9 55 5.6 E 15 22 8 12 1013.8 - 0.0
26/09:00pm 24.6 24.5 15.0 55 5.8 E 9 13 5 7 1013.5 1013.4 0.0
26/08:30pm 24.0 25.3 17.2 65 4.2 E 6 9 3 5 1013.3 - 0.0
26/08:00pm 24.0 26.7 18.7 72 3.4 E 2 7 1 4 1012.8 - 0.0
26/07:30pm 24.6 26.5 18.6 69 3.8 WSW 6 9 3 5 1012.2 - 0.0
26/07:00pm 24.7 26.6 18.6 69 3.9 WSW 6 9 3 5 1011.7 - 0.0
26/06:30pm 25.4 27.2 18.4 65 4.4 WSW 6 13 3 7 1011.3 - 0.0
26/06:00pm 26.1 27.0 18.4 62 4.9 W 11 20 6 11 1010.9 1010.8 0.0
26/05:30pm 28.0 29.2 18.2 55 6.2 W 9 17 5 9 1010.6 - 0.0
26/05:00pm 30.3 29.6 13.2 35 10.2 E 9 15 5 8 1010.3 - 0.0
26/04:30pm 30.9 29.3 12.8 33 10.7 ESE 13 20 7 11 1010.1 - 0.0
26/04:00pm 31.1 29.4 12.6 32 11.0 E 13 22 7 12 1010.1 - 0.0
26/03:30pm 31.2 29.1 12.5 31 11.1 ESE 15 24 8 13 1010.1 - 0.0
26/03:00pm 30.8 29.1 12.6 32 10.8 SSE 13 24 7 13 1010.2 1010.1 0.0
26/02:30pm 31.3 30.1 12.7 32 11.0 SE 11 30 6 16 1010.4 - 0.0
26/02:00pm 31.7 29.3 12.7 31 11.3 SE 17 32 9 17 1010.8 - 0.0
26/01:30pm 30.4 27.3 12.1 32 10.7 ESE 20 28 11 15 1011.5 - 0.0
26/01:00pm 30.3 26.7 11.8 32 10.8 SE 22 32 12 17 1011.9 - 0.0
26/12:30pm 29.9 26.8 12.3 33 10.3 SE 20 32 11 17 1012.4 - 0.0
26/12:00pm 29.6 26.7 13.0 36 9.8 SE 20 32 11 17 1013.0 1012.9 0.0
26/11:30am 28.8 26.3 14.0 40 8.9 ESE 20 33 11 18 1013.4 - 0.0
26/11:00am 27.8 25.5 14.6 44 8.0 ESE 20 32 11 17 1014.0 - 0.0
26/10:30am 27.4 25.2 15.0 46 7.5 ESE 20 32 11 17 1014.4 - 0.0
26/10:00am 26.2 24.6 16.5 55 6.0 ESE 20 28 11 15 1014.6 - 0.0
26/09:30am 25.1 23.6 16.8 60 5.1 ESE 20 30 11 16 1014.7 - 0.0
26/09:00am 24.3 24.3 17.2 64 4.4 SE 13 26 7 14 1014.6 1014.5 0.0
26/08:30am 22.5 23.3 17.3 72 3.2 SSE 9 17 5 9 1014.5 - 0.0
26/08:00am 21.0 22.2 17.3 79 2.3 SSE 7 13 4 7 1014.2 - 0.0
26/07:30am 19.5 21.3 17.3 87 1.3 SSE 4 6 2 3 1014.1 - 0.0
26/07:00am 18.1 20.1 17.0 93 0.7 S 2 4 1 2 1013.9 - 0.0
26/06:30am 18.1 20.5 17.0 93 0.7 CALM 0 0 0 0 1013.5 - 0.0
26/06:00am 18.3 20.7 17.0 92 0.8 CALM 0 0 0 0 1013.0 1012.9 0.0
26/05:30am 18.5 20.9 17.0 91 0.9 CALM 0 2 0 1 1012.7 - 0.0
26/05:00am 19.0 21.1 17.1 89 1.2 S 2 4 1 2 1012.7 - 0.0
26/04:30am 19.5 20.8 17.1 86 1.5 SSE 6 7 3 4 1012.7 - 0.0
26/04:00am 19.3 21.0 17.1 87 1.3 SSE 4 7 2 4 1012.9 - 0.0
26/03:30am 19.6 21.3 17.1 85 1.5 S 4 6 2 3 1013.1 - 0.0
26/03:00am 19.7 21.0 17.0 84 1.6 SSE 6 7 3 4 1013.1 1013.0 0.0
26/02:30am 19.7 20.9 16.8 83 1.8 S 6 7 3 4 1013.3 - 0.0
26/02:00am 19.5 20.6 16.5 83 1.8 S 6 6 3 3 1013.4 - 0.0
26/01:30am 19.7 21.2 16.6 82 1.9 S 4 6 2 3 1013.6 - 0.0
26/01:00am 20.3 22.0 16.3 78 2.4 S 2 4 1 2 1013.8 - 0.0
26/12:30am 20.9 22.7 16.5 76 2.7 E 2 6 1 3 1014.0 - 0.0
26/12:00am 22.0 23.0 16.4 70 3.4 E 6 7 3 4 1014.1 1014.0 0.0
 
Date/Time
EST
Temp
°C
App
Temp
°C
Dew
Point
Rel
Hum
%
Delta-T
°C
Wind Press
QNH
hPa
Press
MSL
hPa
Rain
since 9 am
mm
Dir
 
Spd
km/h
Gust
km/h
Spd
kts
Gust
kts
25/11:30pm 22.4 22.8 16.2 68 3.8 ESE 9 13 5 7 1014.2 - 0.0
25/11:00pm 22.9 22.8 16.0 65 4.2 ESE 11 17 6 9 1014.5 - 0.0
25/10:30pm 23.3 22.4 15.8 62 4.5 E 15 22 8 12 1014.6 - 0.0
25/10:00pm 23.9 23.6 15.4 59 5.1 E 11 19 6 10 1014.6 - 0.0
25/09:30pm 24.3 23.6 15.3 57 5.4 E 13 19 7 10 1014.4 - 0.0
25/09:00pm 24.5 23.7 15.1 55 5.6 E 13 20 7 11 1014.4 1014.3 0.0
25/08:30pm 24.8 24.3 15.0 54 5.9 E 11 15 6 8 1014.1 - 0.0
25/08:00pm 25.0 24.6 15.2 54 5.9 E 11 19 6 10 1013.9 - 0.0
25/07:30pm 25.4 25.0 15.2 53 6.1 E 11 15 6 8 1013.6 - 0.0
25/07:00pm 25.9 25.2 15.4 52 6.4 E 13 17 7 9 1013.2 - 0.0
25/06:30pm 26.5 25.7 15.2 49 6.8 ESE 13 19 7 10 1012.8 - 0.0
25/06:00pm 27.5 25.4 15.1 46 7.5 E 20 28 11 15 1012.4 1012.3 0.0
25/05:30pm 28.4 25.8 15.0 44 8.1 E 22 30 12 16 1012.1 - 0.0
25/05:00pm 29.0 26.3 14.7 41 8.7 ESE 22 30 12 16 1011.9 - 0.0
25/04:30pm 29.0 26.5 14.2 40 8.9 ESE 20 30 11 16 1011.8 - 0.0
25/04:00pm 29.4 27.1 14.1 39 9.2 ESE 19 26 10 14 1011.7 - 0.0
25/03:30pm 30.2 27.6 13.8 36 9.9 ESE 20 32 11 17 1011.7 - 0.0

Other Formats:

Comma delimited format used in spreadsheet applications
http://www.bom.gov.au/fwo/IDQ60801/IDQ60801.94170.axf

JavaScript Object Notation format (JSON) in row-major order
http://www.bom.gov.au/fwo/IDQ60801/IDQ60801.94170.json